sensor_id;sensor_type;location;lat;lon;timestamp;P1;durP1;ratioP1;P2;durP2;ratioP2
4089;SDS011;2059;48.538;12.146;2023-03-14T00:03:13;2.10;;;2.10;;
4089;SDS011;2059;48.538;12.146;2023-03-14T00:08:15;2.90;;;2.80;;
4089;SDS011;2059;48.538;12.146;2023-03-14T00:13:17;3.50;;;3.30;;
4089;SDS011;2059;48.538;12.146;2023-03-14T00:18:20;2.67;;;2.57;;
4089;SDS011;2059;48.538;12.146;2023-03-14T00:23:23;2.40;;;2.30;;
4089;SDS011;2059;48.538;12.146;2023-03-14T00:28:25;2.37;;;2.27;;
4089;SDS011;2059;48.538;12.146;2023-03-14T00:33:28;2.00;;;2.00;;
4089;SDS011;2059;48.538;12.146;2023-03-14T00:38:30;1.90;;;1.80;;
4089;SDS011;2059;48.538;12.146;2023-03-14T00:43:32;1.90;;;1.80;;
4089;SDS011;2059;48.538;12.146;2023-03-14T00:48:36;1.97;;;1.87;;
4089;SDS011;2059;48.538;12.146;2023-03-14T00:53:38;1.73;;;1.73;;
4089;SDS011;2059;48.538;12.146;2023-03-14T00:58:40;2.17;;;2.07;;
4089;SDS011;2059;48.538;12.146;2023-03-14T01:03:43;1.67;;;1.67;;
4089;SDS011;2059;48.538;12.146;2023-03-14T01:08:45;1.80;;;1.70;;
4089;SDS011;2059;48.538;12.146;2023-03-14T01:13:47;3.37;;;3.27;;
4089;SDS011;2059;48.538;12.146;2023-03-14T01:18:51;3.93;;;3.80;;
4089;SDS011;2059;48.538;12.146;2023-03-14T01:23:55;3.80;;;3.60;;
4089;SDS011;2059;48.538;12.146;2023-03-14T01:28:58;3.73;;;3.63;;
4089;SDS011;2059;48.538;12.146;2023-03-14T01:34:01;3.60;;;3.40;;
4089;SDS011;2059;48.538;12.146;2023-03-14T01:39:03;3.30;;;3.20;;
4089;SDS011;2059;48.538;12.146;2023-03-14T01:44:08;1.67;;;1.67;;
4089;SDS011;2059;48.538;12.146;2023-03-14T01:49:13;1.80;;;1.80;;
4089;SDS011;2059;48.538;12.146;2023-03-14T01:54:20;1.57;;;1.57;;
4089;SDS011;2059;48.538;12.146;2023-03-14T01:59:25;2.70;;;2.60;;
4089;SDS011;2059;48.538;12.146;2023-03-14T02:04:31;2.60;;;2.50;;
4089;SDS011;2059;48.538;12.146;2023-03-14T02:09:35;2.40;;;2.40;;
4089;SDS011;2059;48.538;12.146;2023-03-14T02:14:39;2.63;;;2.43;;
4089;SDS011;2059;48.538;12.146;2023-03-14T02:19:50;2.40;;;2.30;;
4089;SDS011;2059;48.538;12.146;2023-03-14T02:25:04;2.10;;;2.10;;
4089;SDS011;2059;48.538;12.146;2023-03-14T02:30:12;2.20;;;2.20;;
4089;SDS011;2059;48.538;12.146;2023-03-14T02:35:16;2.53;;;2.43;;
4089;SDS011;2059;48.538;12.146;2023-03-14T02:45:28;2.40;;;2.30;;
4089;SDS011;2059;48.538;12.146;2023-03-14T02:50:35;2.30;;;2.10;;
4089;SDS011;2059;48.538;12.146;2023-03-14T02:55:37;2.10;;;2.10;;
4089;SDS011;2059;48.538;12.146;2023-03-14T03:00:40;1.90;;;1.80;;
4089;SDS011;2059;48.538;12.146;2023-03-14T03:05:42;2.20;;;2.20;;
4089;SDS011;2059;48.538;12.146;2023-03-14T03:10:44;1.90;;;1.90;;
4089;SDS011;2059;48.538;12.146;2023-03-14T03:15:47;2.17;;;2.07;;
4089;SDS011;2059;48.538;12.146;2023-03-14T03:20:49;2.00;;;2.00;;
4089;SDS011;2059;48.538;12.146;2023-03-14T03:25:51;1.87;;;1.87;;
4089;SDS011;2059;48.538;12.146;2023-03-14T03:30:54;1.90;;;1.90;;
4089;SDS011;2059;48.538;12.146;2023-03-14T03:35:55;1.80;;;1.80;;
4089;SDS011;2059;48.538;12.146;2023-03-14T03:40:57;2.00;;;2.00;;
4089;SDS011;2059;48.538;12.146;2023-03-14T03:46:03;2.20;;;2.20;;
4089;SDS011;2059;48.538;12.146;2023-03-14T03:51:05;1.93;;;1.90;;
4089;SDS011;2059;48.538;12.146;2023-03-14T03:56:08;2.23;;;2.23;;
4089;SDS011;2059;48.538;12.146;2023-03-14T04:01:11;2.20;;;2.17;;
4089;SDS011;2059;48.538;12.146;2023-03-14T04:06:13;2.50;;;2.40;;
4089;SDS011;2059;48.538;12.146;2023-03-14T04:11:15;2.23;;;2.13;;
4089;SDS011;2059;48.538;12.146;2023-03-14T04:16:18;2.37;;;2.37;;
4089;SDS011;2059;48.538;12.146;2023-03-14T04:21:22;2.30;;;2.20;;
4089;SDS011;2059;48.538;12.146;2023-03-14T04:26:24;2.73;;;2.50;;
4089;SDS011;2059;48.538;12.146;2023-03-14T04:31:27;2.63;;;2.43;;
4089;SDS011;2059;48.538;12.146;2023-03-14T04:36:29;2.50;;;2.40;;
4089;SDS011;2059;48.538;12.146;2023-03-14T04:41:31;2.20;;;2.20;;
4089;SDS011;2059;48.538;12.146;2023-03-14T04:46:34;2.67;;;2.47;;
4089;SDS011;2059;48.538;12.146;2023-03-14T04:51:35;2.60;;;2.50;;
4089;SDS011;2059;48.538;12.146;2023-03-14T04:56:37;3.13;;;3.03;;
4089;SDS011;2059;48.538;12.146;2023-03-14T05:01:40;2.27;;;2.27;;
4089;SDS011;2059;48.538;12.146;2023-03-14T05:06:42;3.10;;;3.00;;
4089;SDS011;2059;48.538;12.146;2023-03-14T05:11:44;2.53;;;2.53;;
4089;SDS011;2059;48.538;12.146;2023-03-14T05:16:47;2.50;;;2.50;;
4089;SDS011;2059;48.538;12.146;2023-03-14T05:21:49;2.63;;;2.53;;
4089;SDS011;2059;48.538;12.146;2023-03-14T05:26:50;2.60;;;2.50;;
4089;SDS011;2059;48.538;12.146;2023-03-14T05:31:53;2.83;;;2.73;;
4089;SDS011;2059;48.538;12.146;2023-03-14T05:36:55;3.00;;;2.90;;
4089;SDS011;2059;48.538;12.146;2023-03-14T05:41:57;2.60;;;2.60;;
4089;SDS011;2059;48.538;12.146;2023-03-14T05:47:00;3.10;;;3.00;;
4089;SDS011;2059;48.538;12.146;2023-03-14T05:52:02;3.40;;;3.30;;
4089;SDS011;2059;48.538;12.146;2023-03-14T05:57:04;3.00;;;2.90;;
4089;SDS011;2059;48.538;12.146;2023-03-14T06:02:07;3.20;;;3.10;;
4089;SDS011;2059;48.538;12.146;2023-03-14T06:07:09;3.10;;;3.00;;
4089;SDS011;2059;48.538;12.146;2023-03-14T06:12:11;3.27;;;3.17;;
4089;SDS011;2059;48.538;12.146;2023-03-14T06:17:14;3.07;;;2.97;;
4089;SDS011;2059;48.538;12.146;2023-03-14T06:22:16;3.43;;;3.33;;
4089;SDS011;2059;48.538;12.146;2023-03-14T06:27:19;3.50;;;3.40;;
4089;SDS011;2059;48.538;12.146;2023-03-14T06:32:22;3.60;;;3.50;;
4089;SDS011;2059;48.538;12.146;2023-03-14T06:37:24;4.40;;;4.20;;
4089;SDS011;2059;48.538;12.146;2023-03-14T06:42:26;4.10;;;3.90;;
4089;SDS011;2059;48.538;12.146;2023-03-14T06:47:29;4.10;;;3.90;;
4089;SDS011;2059;48.538;12.146;2023-03-14T06:52:31;3.90;;;3.80;;
4089;SDS011;2059;48.538;12.146;2023-03-14T06:57:32;3.67;;;3.57;;
4089;SDS011;2059;48.538;12.146;2023-03-14T07:02:35;6.73;;;4.50;;
4089;SDS011;2059;48.538;12.146;2023-03-14T07:07:37;3.80;;;3.70;;
4089;SDS011;2059;48.538;12.146;2023-03-14T07:12:39;3.70;;;3.60;;
4089;SDS011;2059;48.538;12.146;2023-03-14T07:17:42;3.60;;;3.50;;
4089;SDS011;2059;48.538;12.146;2023-03-14T07:22:44;3.60;;;3.50;;
4089;SDS011;2059;48.538;12.146;2023-03-14T07:27:48;3.80;;;3.60;;
4089;SDS011;2059;48.538;12.146;2023-03-14T07:32:51;3.60;;;3.50;;
4089;SDS011;2059;48.538;12.146;2023-03-14T07:37:53;4.00;;;3.80;;
4089;SDS011;2059;48.538;12.146;2023-03-14T07:42:54;4.10;;;4.00;;
4089;SDS011;2059;48.538;12.146;2023-03-14T07:47:58;4.33;;;4.13;;
4089;SDS011;2059;48.538;12.146;2023-03-14T07:53:02;4.37;;;4.20;;
4089;SDS011;2059;48.538;12.146;2023-03-14T07:58:03;4.20;;;4.10;;
4089;SDS011;2059;48.538;12.146;2023-03-14T08:03:06;4.10;;;4.00;;
4089;SDS011;2059;48.538;12.146;2023-03-14T08:08:08;4.10;;;3.90;;
4089;SDS011;2059;48.538;12.146;2023-03-14T08:13:10;4.17;;;4.07;;
4089;SDS011;2059;48.538;12.146;2023-03-14T08:18:13;4.80;;;4.50;;
4089;SDS011;2059;48.538;12.146;2023-03-14T08:23:15;13.03;;;5.20;;
4089;SDS011;2059;48.538;12.146;2023-03-14T08:28:17;4.40;;;4.20;;
4089;SDS011;2059;48.538;12.146;2023-03-14T08:33:21;4.80;;;4.60;;
4089;SDS011;2059;48.538;12.146;2023-03-14T08:38:23;4.80;;;4.70;;
4089;SDS011;2059;48.538;12.146;2023-03-14T08:43:25;4.50;;;4.40;;
4089;SDS011;2059;48.538;12.146;2023-03-14T08:48:28;2.63;;;2.40;;
4089;SDS011;2059;48.538;12.146;2023-03-14T08:53:31;2.30;;;2.20;;
4089;SDS011;2059;48.538;12.146;2023-03-14T08:58:32;2.43;;;2.23;;
4089;SDS011;2059;48.538;12.146;2023-03-14T09:03:38;2.07;;;1.97;;
4089;SDS011;2059;48.538;12.146;2023-03-14T09:08:39;2.30;;;2.20;;
4089;SDS011;2059;48.538;12.146;2023-03-14T09:13:41;1.90;;;1.90;;
4089;SDS011;2059;48.538;12.146;2023-03-14T09:18:44;2.30;;;1.90;;
4089;SDS011;2059;48.538;12.146;2023-03-14T09:23:46;2.27;;;2.17;;
4089;SDS011;2059;48.538;12.146;2023-03-14T09:28:48;2.20;;;2.10;;
4089;SDS011;2059;48.538;12.146;2023-03-14T09:33:52;2.73;;;2.53;;
4089;SDS011;2059;48.538;12.146;2023-03-14T09:38:53;1.90;;;1.90;;
4089;SDS011;2059;48.538;12.146;2023-03-14T09:43:58;2.13;;;2.10;;
4089;SDS011;2059;48.538;12.146;2023-03-14T09:49:09;1.90;;;1.90;;
4089;SDS011;2059;48.538;12.146;2023-03-14T09:54:17;1.90;;;1.80;;
4089;SDS011;2059;48.538;12.146;2023-03-14T09:59:31;1.93;;;1.93;;
4089;SDS011;2059;48.538;12.146;2023-03-14T10:04:36;2.40;;;2.30;;
4089;SDS011;2059;48.538;12.146;2023-03-14T10:09:44;2.43;;;2.33;;
4089;SDS011;2059;48.538;12.146;2023-03-14T10:14:47;2.63;;;2.40;;
4089;SDS011;2059;48.538;12.146;2023-03-14T10:19:52;2.33;;;2.33;;
4089;SDS011;2059;48.538;12.146;2023-03-14T10:24:56;2.60;;;2.50;;
4089;SDS011;2059;48.538;12.146;2023-03-14T10:30:00;3.70;;;3.50;;
4089;SDS011;2059;48.538;12.146;2023-03-14T10:35:06;2.40;;;2.40;;
4089;SDS011;2059;48.538;12.146;2023-03-14T10:40:24;2.87;;;2.67;;
4089;SDS011;2059;48.538;12.146;2023-03-14T10:45:33;2.30;;;2.30;;
4089;SDS011;2059;48.538;12.146;2023-03-14T10:50:39;2.83;;;2.77;;
4089;SDS011;2059;48.538;12.146;2023-03-14T10:55:49;2.60;;;2.40;;
4089;SDS011;2059;48.538;12.146;2023-03-14T11:00:53;2.67;;;2.50;;
4089;SDS011;2059;48.538;12.146;2023-03-14T11:06:07;3.27;;;2.57;;
4089;SDS011;2059;48.538;12.146;2023-03-14T11:11:15;2.73;;;2.53;;
4089;SDS011;2059;48.538;12.146;2023-03-14T11:16:22;2.43;;;2.33;;
4089;SDS011;2059;48.538;12.146;2023-03-14T11:21:32;2.60;;;2.50;;
4089;SDS011;2059;48.538;12.146;2023-03-14T11:26:41;2.40;;;2.40;;
4089;SDS011;2059;48.538;12.146;2023-03-14T11:31:49;2.47;;;2.40;;
4089;SDS011;2059;48.538;12.146;2023-03-14T11:36:58;3.07;;;2.97;;
4089;SDS011;2059;48.538;12.146;2023-03-14T11:42:02;2.80;;;2.70;;
4089;SDS011;2059;48.538;12.146;2023-03-14T11:47:05;2.67;;;2.50;;
4089;SDS011;2059;48.538;12.146;2023-03-14T11:52:14;3.00;;;2.80;;
4089;SDS011;2059;48.538;12.146;2023-03-14T11:57:20;2.83;;;2.73;;
4089;SDS011;2059;48.538;12.146;2023-03-14T12:02:25;2.80;;;2.20;;
4089;SDS011;2059;48.538;12.146;2023-03-14T12:07:37;2.83;;;2.60;;
4089;SDS011;2059;48.538;12.146;2023-03-14T12:12:44;2.93;;;2.83;;
4089;SDS011;2059;48.538;12.146;2023-03-14T12:17:46;2.70;;;2.60;;
4089;SDS011;2059;48.538;12.146;2023-03-14T12:22:57;2.50;;;2.40;;
4089;SDS011;2059;48.538;12.146;2023-03-14T12:28:05;2.40;;;2.30;;
4089;SDS011;2059;48.538;12.146;2023-03-14T12:33:28;2.73;;;2.63;;
4089;SDS011;2059;48.538;12.146;2023-03-14T12:38:39;2.50;;;2.30;;
4089;SDS011;2059;48.538;12.146;2023-03-14T12:43:49;2.70;;;2.60;;
4089;SDS011;2059;48.538;12.146;2023-03-14T12:48:53;2.40;;;2.40;;
4089;SDS011;2059;48.538;12.146;2023-03-14T12:54:04;4.80;;;2.30;;
4089;SDS011;2059;48.538;12.146;2023-03-14T12:59:29;2.40;;;2.40;;
4089;SDS011;2059;48.538;12.146;2023-03-14T13:04:33;3.13;;;2.37;;
4089;SDS011;2059;48.538;12.146;2023-03-14T13:15:19;2.67;;;2.57;;
4089;SDS011;2059;48.538;12.146;2023-03-14T13:20:28;4.20;;;3.20;;
4089;SDS011;2059;48.538;12.146;2023-03-14T13:25:33;2.33;;;2.23;;
4089;SDS011;2059;48.538;12.146;2023-03-14T13:30:39;2.30;;;2.20;;
4089;SDS011;2059;48.538;12.146;2023-03-14T13:35:43;2.60;;;2.50;;
4089;SDS011;2059;48.538;12.146;2023-03-14T13:40:46;2.90;;;2.77;;
4089;SDS011;2059;48.538;12.146;2023-03-14T13:45:51;2.90;;;2.70;;
4089;SDS011;2059;48.538;12.146;2023-03-14T13:50:58;6.90;;;2.50;;
4089;SDS011;2059;48.538;12.146;2023-03-14T13:56:02;2.50;;;2.40;;
4089;SDS011;2059;48.538;12.146;2023-03-14T14:01:10;2.27;;;2.27;;
4089;SDS011;2059;48.538;12.146;2023-03-14T14:11:41;2.60;;;2.50;;
4089;SDS011;2059;48.538;12.146;2023-03-14T14:16:45;2.60;;;2.50;;
4089;SDS011;2059;48.538;12.146;2023-03-14T14:21:49;2.30;;;2.30;;
4089;SDS011;2059;48.538;12.146;2023-03-14T14:26:52;2.13;;;2.13;;
4089;SDS011;2059;48.538;12.146;2023-03-14T14:32:02;2.20;;;2.10;;
4089;SDS011;2059;48.538;12.146;2023-03-14T14:42:32;1.90;;;1.80;;
4089;SDS011;2059;48.538;12.146;2023-03-14T14:47:35;3.00;;;2.73;;
4089;SDS011;2059;48.538;12.146;2023-03-14T14:52:48;3.50;;;3.40;;
4089;SDS011;2059;48.538;12.146;2023-03-14T14:57:51;3.63;;;3.53;;
4089;SDS011;2059;48.538;12.146;2023-03-14T15:02:55;3.60;;;3.50;;
4089;SDS011;2059;48.538;12.146;2023-03-14T15:08:00;3.47;;;3.00;;
4089;SDS011;2059;48.538;12.146;2023-03-14T15:13:02;3.30;;;3.20;;
4089;SDS011;2059;48.538;12.146;2023-03-14T15:18:10;2.20;;;2.07;;
4089;SDS011;2059;48.538;12.146;2023-03-14T15:23:15;3.30;;;3.10;;
4089;SDS011;2059;48.538;12.146;2023-03-14T15:28:19;3.20;;;3.10;;
4089;SDS011;2059;48.538;12.146;2023-03-14T15:33:24;2.70;;;2.60;;
4089;SDS011;2059;48.538;12.146;2023-03-14T15:38:26;2.90;;;2.80;;
4089;SDS011;2059;48.538;12.146;2023-03-14T15:43:28;2.80;;;2.70;;
4089;SDS011;2059;48.538;12.146;2023-03-14T15:48:31;2.70;;;2.70;;
4089;SDS011;2059;48.538;12.146;2023-03-14T15:53:33;2.90;;;2.80;;
4089;SDS011;2059;48.538;12.146;2023-03-14T15:58:36;2.60;;;2.60;;
4089;SDS011;2059;48.538;12.146;2023-03-14T16:03:41;3.37;;;3.27;;
4089;SDS011;2059;48.538;12.146;2023-03-14T16:08:45;3.37;;;3.27;;
4089;SDS011;2059;48.538;12.146;2023-03-14T16:13:47;3.63;;;3.53;;
4089;SDS011;2059;48.538;12.146;2023-03-14T16:18:50;3.77;;;3.40;;
4089;SDS011;2059;48.538;12.146;2023-03-14T16:23:51;1.80;;;1.80;;
4089;SDS011;2059;48.538;12.146;2023-03-14T16:28:53;2.00;;;2.00;;
4089;SDS011;2059;48.538;12.146;2023-03-14T16:33:56;2.60;;;2.50;;
4089;SDS011;2059;48.538;12.146;2023-03-14T16:39:02;2.43;;;2.23;;
4089;SDS011;2059;48.538;12.146;2023-03-14T16:44:04;4.10;;;3.83;;
4089;SDS011;2059;48.538;12.146;2023-03-14T16:49:08;2.70;;;2.60;;
4089;SDS011;2059;48.538;12.146;2023-03-14T16:54:10;2.20;;;2.10;;
4089;SDS011;2059;48.538;12.146;2023-03-14T16:59:12;2.77;;;2.40;;
4089;SDS011;2059;48.538;12.146;2023-03-14T17:04:15;7.00;;;2.60;;
4089;SDS011;2059;48.538;12.146;2023-03-14T17:09:17;2.40;;;2.30;;
4089;SDS011;2059;48.538;12.146;2023-03-14T17:14:19;2.70;;;2.50;;
4089;SDS011;2059;48.538;12.146;2023-03-14T17:19:22;3.03;;;2.90;;
4089;SDS011;2059;48.538;12.146;2023-03-14T17:24:23;2.83;;;2.63;;
4089;SDS011;2059;48.538;12.146;2023-03-14T17:29:25;2.90;;;2.80;;
4089;SDS011;2059;48.538;12.146;2023-03-14T17:34:28;2.60;;;2.40;;
4089;SDS011;2059;48.538;12.146;2023-03-14T17:39:30;2.50;;;2.40;;
4089;SDS011;2059;48.538;12.146;2023-03-14T17:44:33;7.10;;;2.60;;
4089;SDS011;2059;48.538;12.146;2023-03-14T17:49:36;3.23;;;2.50;;
4089;SDS011;2059;48.538;12.146;2023-03-14T17:54:39;11.00;;;2.90;;
4089;SDS011;2059;48.538;12.146;2023-03-14T17:59:41;5.10;;;2.80;;
4089;SDS011;2059;48.538;12.146;2023-03-14T18:04:44;3.43;;;3.33;;
4089;SDS011;2059;48.538;12.146;2023-03-14T18:09:46;3.47;;;3.37;;
4089;SDS011;2059;48.538;12.146;2023-03-14T18:14:48;3.20;;;3.00;;
4089;SDS011;2059;48.538;12.146;2023-03-14T18:19:51;3.10;;;3.00;;
4089;SDS011;2059;48.538;12.146;2023-03-14T18:24:54;4.00;;;3.70;;
4089;SDS011;2059;48.538;12.146;2023-03-14T18:29:56;4.33;;;3.03;;
4089;SDS011;2059;48.538;12.146;2023-03-14T18:34:59;6.53;;;3.20;;
4089;SDS011;2059;48.538;12.146;2023-03-14T18:40:01;4.00;;;3.50;;
4089;SDS011;2059;48.538;12.146;2023-03-14T18:45:04;4.27;;;3.53;;
4089;SDS011;2059;48.538;12.146;2023-03-14T18:50:09;3.53;;;3.23;;
4089;SDS011;2059;48.538;12.146;2023-03-14T18:55:12;6.57;;;5.03;;
4089;SDS011;2059;48.538;12.146;2023-03-14T19:00:14;2.93;;;2.70;;
4089;SDS011;2059;48.538;12.146;2023-03-14T19:05:19;2.97;;;2.57;;
4089;SDS011;2059;48.538;12.146;2023-03-14T19:10:21;3.50;;;2.97;;
4089;SDS011;2059;48.538;12.146;2023-03-14T19:15:22;7.40;;;3.00;;
4089;SDS011;2059;48.538;12.146;2023-03-14T19:20:26;3.20;;;2.43;;
4089;SDS011;2059;48.538;12.146;2023-03-14T19:25:28;2.93;;;2.73;;
4089;SDS011;2059;48.538;12.146;2023-03-14T19:30:30;3.37;;;2.60;;
4089;SDS011;2059;48.538;12.146;2023-03-14T19:35:33;2.97;;;2.60;;
4089;SDS011;2059;48.538;12.146;2023-03-14T19:40:35;3.27;;;2.63;;
4089;SDS011;2059;48.538;12.146;2023-03-14T19:45:38;2.90;;;2.70;;
4089;SDS011;2059;48.538;12.146;2023-03-14T19:50:43;4.10;;;3.17;;
4089;SDS011;2059;48.538;12.146;2023-03-14T19:55:44;3.07;;;2.83;;
4089;SDS011;2059;48.538;12.146;2023-03-14T20:00:48;3.83;;;3.07;;
4089;SDS011;2059;48.538;12.146;2023-03-14T20:05:51;4.93;;;2.37;;
4089;SDS011;2059;48.538;12.146;2023-03-14T20:10:53;4.73;;;3.10;;
4089;SDS011;2059;48.538;12.146;2023-03-14T20:15:55;2.57;;;2.37;;
4089;SDS011;2059;48.538;12.146;2023-03-14T20:20:59;3.27;;;3.10;;
4089;SDS011;2059;48.538;12.146;2023-03-14T20:26:00;3.57;;;3.37;;
4089;SDS011;2059;48.538;12.146;2023-03-14T20:31:04;3.23;;;3.13;;
4089;SDS011;2059;48.538;12.146;2023-03-14T20:36:09;5.80;;;4.10;;
4089;SDS011;2059;48.538;12.146;2023-03-14T20:41:11;6.67;;;4.23;;
4089;SDS011;2059;48.538;12.146;2023-03-14T20:46:12;3.53;;;3.30;;
4089;SDS011;2059;48.538;12.146;2023-03-14T20:51:17;4.20;;;3.80;;
4089;SDS011;2059;48.538;12.146;2023-03-14T20:56:19;3.50;;;3.30;;
4089;SDS011;2059;48.538;12.146;2023-03-14T21:01:21;4.00;;;3.80;;
4089;SDS011;2059;48.538;12.146;2023-03-14T21:06:24;3.60;;;3.40;;
4089;SDS011;2059;48.538;12.146;2023-03-14T21:11:26;3.70;;;3.40;;
4089;SDS011;2059;48.538;12.146;2023-03-14T21:16:28;3.57;;;3.23;;
4089;SDS011;2059;48.538;12.146;2023-03-14T21:21:31;3.87;;;3.53;;
4089;SDS011;2059;48.538;12.146;2023-03-14T21:26:33;6.00;;;3.53;;
